Time;durP1;ratioP1;P1;durP2;ratioP2;P2;SDS_P1;SDS_P2;PMS_P1;PMS_P2;Temp;Humidity;BMP_temperature;BMP_pressure;BME280_temperature;BME280_humidity;BME280_pressure;Samples;Min_cycle;Max_cycle;Signal;HPM_P1;HPM_P2
2023/02/11 00:00:42;;;;;;;45.42;23.60;;;;;;;2.68;100.00;98245.94;5107372;27;20087;-48
2023/02/11 00:03:10;;;;;;;47.00;23.35;;;;;;;2.70;100.00;98244.16;5106567;27;20083;-51
2023/02/11 00:05:38;;;;;;;57.72;23.88;;;;;;;2.73;100.00;98257.06;5102551;27;20075;-46
2023/02/11 00:08:07;;;;;;;50.55;25.17;;;;;;;2.65;100.00;98252.13;5101015;27;20504;-48
2023/02/11 00:10:35;;;;;;;53.30;24.27;;;;;;;2.63;100.00;98253.06;5100425;28;20078;-49
2023/02/11 00:13:03;;;;;;;46.45;24.38;;;;;;;2.54;100.00;98260.28;5100701;27;20456;-47
2023/02/11 00:15:32;;;;;;;53.03;25.10;;;;;;;2.53;100.00;98247.31;5105100;27;20616;-50
2023/02/11 00:18:01;;;;;;;56.20;25.52;;;;;;;2.48;100.00;98252.69;5098175;27;20078;-51
2023/02/11 00:20:29;;;;;;;52.50;25.03;;;;;;;2.60;100.00;98244.44;5108161;27;20478;-45
2023/02/11 00:22:58;;;;;;;54.67;25.38;;;;;;;2.69;100.00;98240.69;5106445;27;20403;-48
2023/02/11 00:25:26;;;;;;;56.75;26.02;;;;;;;2.65;100.00;98248.66;5102842;27;20645;-50
2023/02/11 00:27:54;;;;;;;56.33;26.15;;;;;;;2.67;100.00;98247.69;5102016;27;20083;-51
2023/02/11 00:30:23;;;;;;;57.40;25.58;;;;;;;2.57;100.00;98247.16;5103924;27;20079;-52
2023/02/11 00:32:51;;;;;;;51.08;23.77;;;;;;;2.48;100.00;98247.47;5110795;27;20082;-46
2023/02/11 00:35:21;;;;;;;49.92;24.58;;;;;;;2.35;100.00;98236.59;5102836;27;20082;-48
2023/02/11 00:37:49;;;;;;;54.20;24.00;;;;;;;2.20;100.00;98239.69;5100799;27;20082;-51
2023/02/11 00:40:17;;;;;;;51.38;24.08;;;;;;;2.28;100.00;98242.91;5101162;27;20083;-45
2023/02/11 00:42:46;;;;;;;51.78;23.67;;;;;;;2.34;100.00;98240.13;5094341;28;20572;-49
2023/02/11 00:45:14;;;;;;;56.75;25.33;;;;;;;2.35;100.00;98234.00;5102098;27;20539;-51
2023/02/11 00:47:42;;;;;;;55.95;26.50;;;;;;;2.37;100.00;98227.00;5107363;27;20441;-52
2023/02/11 00:50:11;;;;;;;53.83;24.55;;;;;;;2.29;100.00;98233.34;5096833;27;20075;-50
2023/02/11 00:52:40;;;;;;;55.03;25.70;;;;;;;2.35;100.00;98230.56;5104872;27;20079;-46
2023/02/11 00:55:09;;;;;;;60.97;26.13;;;;;;;2.41;100.00;98232.97;5100647;27;20543;-48
2023/02/11 00:57:37;;;;;;;54.85;25.75;;;;;;;2.41;100.00;98221.66;5096875;28;20497;-50
2023/02/11 01:00:07;;;;;;;56.08;26.48;;;;;;;2.40;100.00;98225.19;5101377;27;20504;-48
2023/02/11 01:02:36;;;;;;;59.90;27.23;;;;;;;2.44;100.00;98225.03;5095729;27;20083;-49
2023/02/11 01:05:05;;;;;;;57.80;26.15;;;;;;;2.48;100.00;98221.44;5104638;27;20090;-50
2023/02/11 01:07:33;;;;;;;58.83;27.52;;;;;;;2.48;100.00;98218.84;5101039;27;20072;-45
2023/02/11 01:10:03;;;;;;;62.78;27.02;;;;;;;2.41;100.00;98221.66;5104419;27;20109;-51
2023/02/11 01:12:31;;;;;;;55.63;26.00;;;;;;;2.43;100.00;98222.47;5104897;27;20618;-48
2023/02/11 01:15:04;;;;;;;55.22;23.75;;;;;;;2.38;100.00;98220.88;5095739;28;20052;-51
2023/02/11 01:17:33;;;;;;;48.30;24.10;;;;;;;2.33;100.00;98222.78;5093492;27;20428;-50
2023/02/11 01:20:02;;;;;;;54.00;25.40;;;;;;;2.34;100.00;98221.00;5097632;28;20508;-48
2023/02/11 01:22:31;;;;;;;54.53;25.02;;;;;;;2.36;100.00;98224.44;5097987;27;20091;-48
2023/02/11 01:24:59;;;;;;;48.38;24.05;;;;;;;2.35;100.00;98217.53;5100989;27;20450;-49
2023/02/11 01:27:29;;;;;;;55.40;24.52;;;;;;;2.36;100.00;98220.06;5096144;27;20072;-46
2023/02/11 01:29:58;;;;;;;45.58;23.92;;;;;;;2.37;100.00;98224.41;5108770;27;20459;-47
2023/02/11 01:32:26;;;;;;;46.70;23.42;;;;;;;2.35;100.00;98220.13;5102459;27;20559;-49
2023/02/11 01:34:55;;;;;;;52.55;23.85;;;;;;;2.36;100.00;98221.84;5099867;27;20059;-51
2023/02/11 01:37:23;;;;;;;49.50;23.92;;;;;;;2.35;100.00;98228.78;5100666;27;20086;-43
2023/02/11 01:39:51;;;;;;;47.80;24.35;;;;;;;2.32;100.00;98228.88;5105411;27;20070;-48
2023/02/11 01:42:21;;;;;;;44.10;22.50;;;;;;;2.29;100.00;98228.13;5102485;27;20109;-48
2023/02/11 01:44:52;;;;;;;47.70;23.35;;;;;;;2.30;100.00;98219.41;5099660;27;20072;-50
2023/02/11 01:47:21;;;;;;;41.25;21.15;;;;;;;2.29;100.00;98222.94;5099839;27;20563;-51
2023/02/11 01:49:52;;;;;;;52.15;23.63;;;;;;;2.27;100.00;98214.31;5099239;27;20060;-45
2023/02/11 01:52:23;;;;;;;54.42;26.85;;;;;;;1.29;100.00;98223.38;5099381;28;20055;-45
2023/02/11 01:57:57;;;;;;;50.22;23.13;;;;;;;1.60;100.00;98222.50;5049967;28;20332;-50
2023/02/11 02:00:33;;;;;;;47.85;22.85;;;;;;;1.79;100.00;98215.84;5049344;28;20077;-46
2023/02/11 02:03:05;;;;;;;49.65;23.27;;;;;;;1.82;100.00;98214.88;5067816;28;20674;-46
2023/02/11 02:05:37;;;;;;;48.13;22.85;;;;;;;1.75;100.00;98224.63;5098253;27;20067;-46
2023/02/11 02:08:10;;;;;;;48.65;23.65;;;;;;;1.76;100.00;98217.69;5100269;28;20071;-48
2023/02/11 02:10:41;;;;;;;47.00;21.33;;;;;;;1.74;100.00;98209.06;5093466;28;20541;-49
2023/02/11 02:13:09;;;;;;;46.80;22.30;;;;;;;1.64;100.00;98203.28;5095962;27;20063;-47
2023/02/11 02:15:41;;;;;;;46.67;23.75;;;;;;;1.66;100.00;98189.34;5099407;27;20443;-50
2023/02/11 02:18:19;;;;;;;42.78;22.02;;;;;;;1.67;100.00;98185.00;5089391;28;20099;-47
2023/02/11 02:21:22;;;;;;;47.42;22.40;;;;;;;1.61;100.00;98180.81;5092324;28;20075;-49
2023/02/11 02:24:02;;;;;;;47.55;22.10;;;;;;;1.63;100.00;98179.03;5090495;28;20440;-49
2023/02/11 02:26:45;;;;;;;;;;;;;;;1.59;100.00;98169.63;5090474;28;20501;-48
2023/02/11 02:29:39;;;;;;;47.38;22.83;;;;;;;1.51;100.00;98166.41;5081331;28;20013;-48
2023/02/11 02:32:28;;;;;;;47.58;22.50;;;;;;;1.62;100.00;98160.91;5101159;28;20088;-52
2023/02/11 02:35:02;;;;;;;48.28;21.75;;;;;;;1.62;100.00;98160.91;5090579;28;20079;-46
2023/02/11 02:37:33;;;;;;;46.33;21.27;;;;;;;1.67;100.00;98157.25;5095253;28;20525;-50
2023/02/11 02:40:05;;;;;;;47.03;22.75;;;;;;;1.74;100.00;98152.69;5094386;28;20436;-52
2023/02/11 02:42:33;;;;;;;45.60;22.20;;;;;;;1.78;100.00;98151.69;5095600;28;20468;-46
2023/02/11 02:45:02;;;;;;;46.05;22.30;;;;;;;1.75;100.00;98143.97;5088530;28;20870;-46
2023/02/11 02:47:31;;;;;;;46.75;21.60;;;;;;;1.78;100.00;98133.50;5107937;28;20457;-47
2023/02/11 02:50:00;;;;;;;47.10;23.83;;;;;;;1.54;100.00;98131.66;5095436;28;20074;-52
2023/02/11 02:52:35;;;;;;;44.00;22.15;;;;;;;1.87;100.00;98129.75;5097567;28;20084;-49
2023/02/11 02:55:14;;;;;;;48.15;23.00;;;;;;;1.90;100.00;98127.91;5092237;28;20071;-46
2023/02/11 02:57:58;;;;;;;45.80;22.73;;;;;;;1.60;100.00;98132.34;5091103;28;20075;-46
2023/02/11 03:00:32;;;;;;;42.45;21.98;;;;;;;1.73;100.00;98125.00;5091610;28;20083;-48
2023/02/11 03:03:16;;;;;;;48.90;24.35;;;;;;;1.68;100.00;98119.06;5097861;28;20078;-49
2023/02/11 03:05:50;;;;;;;41.10;20.20;;;;;;;1.99;100.00;98118.94;5099309;28;20079;-51
2023/02/11 03:08:24;;;;;;;41.88;21.63;;;;;;;1.90;100.00;98121.84;5099818;28;20090;-46
2023/02/11 03:10:53;;;;;;;42.42;21.50;;;;;;;1.96;100.00;98113.84;5099142;28;20083;-46
2023/02/11 03:13:25;;;;;;;43.05;20.08;;;;;;;2.07;100.00;98109.13;5100480;28;20083;-49
2023/02/11 03:15:55;;;;;;;43.00;20.13;;;;;;;2.12;100.00;98117.63;5103599;28;20043;-47
2023/02/11 03:18:26;;;;;;;;;;;;;;;2.17;100.00;98121.81;5100387;28;20534;-51
2023/02/11 03:20:55;;;;;;;42.42;20.02;;;;;;;2.13;100.00;98126.28;5106314;28;20419;-49
2023/02/11 03:23:27;;;;;;;46.22;20.60;;;;;;;2.23;100.00;98124.22;5099771;27;20083;-47
2023/02/11 03:25:58;;;;;;;35.55;19.50;;;;;;;2.25;100.00;98125.03;5101023;28;20515;-50
2023/02/11 03:28:30;;;;;;;45.00;20.60;;;;;;;2.23;100.00;98122.47;5101140;28;20087;-46
2023/02/11 03:31:09;;;;;;;40.40;20.35;;;;;;;2.19;100.00;98125.22;5100780;28;20075;-49
2023/02/11 03:33:43;;;;;;;45.38;21.20;;;;;;;2.19;100.00;98118.28;5101376;28;20067;-49
2023/02/11 03:36:16;;;;;;;38.75;20.35;;;;;;;2.22;100.00;98120.78;5103326;27;20087;-51
2023/02/11 03:38:48;;;;;;;39.45;19.27;;;;;;;2.28;100.00;98122.31;5104665;27;20090;-50
2023/02/11 03:41:18;;;;;;;41.97;20.15;;;;;;;2.21;100.00;98120.84;5102876;27;20068;-46
2023/02/11 03:43:48;;;;;;;40.72;19.55;;;;;;;2.18;100.00;98115.72;5099592;27;20558;-51
2023/02/11 03:46:19;;;;;;;39.10;19.20;;;;;;;2.21;100.00;98116.47;5112249;27;20079;-47
2023/02/11 03:48:51;;;;;;;35.97;18.50;;;;;;;2.22;100.00;98120.78;5109110;27;20105;-49
2023/02/11 03:51:21;;;;;;;37.65;19.77;;;;;;;2.30;100.00;98120.50;5116866;27;20082;-50
2023/02/11 03:53:49;;;;;;;38.10;18.85;;;;;;;2.39;100.00;98120.19;5112621;27;20502;-49
2023/02/11 03:56:20;;;;;;;37.72;18.38;;;;;;;2.49;100.00;98118.97;5099125;27;20079;-50
2023/02/11 03:58:49;;;;;;;37.22;18.52;;;;;;;2.61;100.00;98122.88;5108750;27;20463;-48
2023/02/11 04:01:17;;;;;;;42.35;19.20;;;;;;;2.53;100.00;98132.72;5099908;27;20091;-49
2023/02/11 04:03:46;;;;;;;38.50;19.42;;;;;;;2.51;100.00;98135.41;5107571;27;20085;-47
2023/02/11 04:06:15;;;;;;;43.30;19.48;;;;;;;2.66;100.00;98135.75;5109496;27;20074;-50
2023/02/11 04:08:43;;;;;;;37.83;19.53;;;;;;;2.74;100.00;98139.78;5110039;27;20083;-47
2023/02/11 04:11:12;;;;;;;37.42;20.48;;;;;;;2.74;100.00;98131.97;5108920;27;20083;-49
2023/02/11 04:13:40;;;;;;;40.47;19.85;;;;;;;2.75;100.00;98133.69;5104082;27;20079;-53
2023/02/11 04:16:08;;;;;;;40.90;19.92;;;;;;;2.82;100.00;98134.28;5111009;27;20079;-50
2023/02/11 04:18:37;;;;;;;39.95;20.05;;;;;;;2.83;100.00;98130.78;5094887;27;20079;-47
2023/02/11 04:21:05;;;;;;;37.30;18.90;;;;;;;1.84;100.00;98142.84;5094823;27;20095;-49
2023/02/11 04:23:35;;;;;;;38.28;19.52;;;;;;;2.24;100.00;98146.75;5097972;28;20091;-50
2023/02/11 04:26:03;;;;;;;39.37;19.50;;;;;;;2.40;100.00;98149.69;5100691;27;20471;-49
2023/02/11 04:28:32;;;;;;;37.42;19.25;;;;;;;2.47;100.00;98158.97;5095351;28;20517;-47
2023/02/11 04:31:00;;;;;;;36.83;19.58;;;;;;;2.52;100.00;98170.09;5102853;27;20557;-52
2023/02/11 04:33:29;;;;;;;37.15;19.45;;;;;;;2.47;100.00;98178.03;5099787;27;20075;-46
2023/02/11 04:35:57;;;;;;;35.85;18.23;;;;;;;2.52;100.00;98177.91;5108655;27;20101;-52
2023/02/11 04:38:26;;;;;;;35.95;18.52;;;;;;;2.15;100.00;98176.53;5100541;27;20075;-48
2023/02/11 04:40:55;;;;;;;41.38;19.55;;;;;;;2.10;100.00;98179.28;5103452;27;20082;-44
2023/02/11 04:43:24;;;;;;;36.93;19.43;;;;;;;2.20;100.00;98187.63;5096659;27;20160;-50
2023/02/11 04:45:52;;;;;;;36.92;18.50;;;;;;;2.11;100.00;98181.00;5099715;27;20090;-51
2023/02/11 04:48:20;;;;;;;35.65;17.98;;;;;;;2.18;100.00;98171.22;5099428;27;20079;-51
2023/02/11 04:50:49;;;;;;;37.88;19.23;;;;;;;2.06;100.00;98172.47;5099918;27;20076;-48
2023/02/11 04:53:17;;;;;;;37.78;18.30;;;;;;;2.04;100.00;98161.28;5106955;27;20090;-45
2023/02/11 04:55:48;;;;;;;37.83;20.02;;;;;;;2.24;100.00;98168.44;5097760;27;20082;-46
2023/02/11 04:58:19;;;;;;;38.22;20.08;;;;;;;2.24;100.00;98151.97;5092327;28;20532;-48
2023/02/11 05:00:47;;;;;;;38.28;19.55;;;;;;;2.24;100.00;98159.78;5098986;27;20083;-52
2023/02/11 05:03:16;;;;;;;34.67;18.20;;;;;;;2.55;100.00;98160.44;5093998;27;20083;-49
2023/02/11 05:05:44;;;;;;;38.97;19.05;;;;;;;2.47;100.00;98159.81;5091107;27;20067;-47
2023/02/11 05:08:13;;;;;;;40.95;17.98;;;;;;;2.39;100.00;98156.63;5102749;27;20071;-49
2023/02/11 05:10:45;;;;;;;32.97;18.25;;;;;;;2.37;100.00;98148.03;5100573;27;20083;-47
2023/02/11 05:13:14;;;;;;;35.72;18.42;;;;;;;2.46;100.00;98150.31;5094572;27;20454;-52
2023/02/11 05:15:44;;;;;;;35.95;17.23;;;;;;;2.57;100.00;98137.75;5093727;27;20495;-49
2023/02/11 05:18:13;;;;;;;33.85;17.63;;;;;;;2.84;100.00;98133.34;5102363;27;20451;-52
2023/02/11 05:20:42;;;;;;;31.05;16.52;;;;;;;2.29;100.00;98144.84;5105159;27;20083;-47
2023/02/11 05:23:10;;;;;;;35.13;17.95;;;;;;;2.63;100.00;98128.06;5100732;27;20076;-46
2023/02/11 05:25:39;;;;;;;32.75;16.67;;;;;;;2.63;100.00;98117.63;5100035;27;20055;-51
2023/02/11 05:28:07;;;;;;;31.67;16.73;;;;;;;2.44;100.00;98107.84;5103640;27;20071;-52
2023/02/11 05:30:36;;;;;;;38.22;18.15;;;;;;;2.40;100.00;98111.47;5092860;28;20068;-47
2023/02/11 05:33:06;;;;;;;33.75;18.10;;;;;;;2.38;100.00;98100.28;5104590;27;20075;-47
2023/02/11 05:35:34;;;;;;;32.63;17.48;;;;;;;2.52;100.00;98108.44;5105362;27;20067;-53
2023/02/11 05:38:03;;;;;;;33.03;17.42;;;;;;;2.76;100.00;98113.69;5102246;27;20067;-49
2023/02/11 05:40:31;;;;;;;31.35;16.77;;;;;;;2.95;100.00;98113.84;5093594;28;20087;-48
2023/02/11 05:42:59;;;;;;;33.08;17.30;;;;;;;2.54;100.00;98118.78;5091602;28;20106;-47
2023/02/11 05:45:28;;;;;;;30.30;15.60;;;;;;;3.34;100.00;98108.91;5096410;28;20611;-47
2023/02/11 05:47:57;;;;;;;32.15;16.02;;;;;;;3.55;100.00;98115.88;5104177;27;20078;-51
2023/02/11 05:50:26;;;;;;;34.08;16.45;;;;;;;3.97;100.00;98112.44;5100285;27;20086;-46
2023/02/11 05:52:55;;;;;;;31.83;15.57;;;;;;;3.55;100.00;98110.66;5103613;27;20063;-51
2023/02/11 05:55:23;;;;;;;27.80;15.48;;;;;;;3.93;100.00;98102.22;5099040;27;20500;-50
2023/02/11 05:57:52;;;;;;;31.80;16.05;;;;;;;3.68;100.00;98107.56;5098053;28;20082;-49
2023/02/11 06:00:20;;;;;;;28.42;14.45;;;;;;;3.99;100.00;98108.03;5099011;27;20074;-52
2023/02/11 06:02:48;;;;;;;30.02;14.90;;;;;;;3.29;100.00;98109.06;5096648;27;20090;-49
2023/02/11 06:05:17;;;;;;;27.80;14.68;;;;;;;4.05;100.00;98107.75;5105299;27;20078;-49
2023/02/11 06:07:47;;;;;;;25.83;14.02;;;;;;;4.31;100.00;98112.81;5099555;27;20055;-50
2023/02/11 06:10:15;;;;;;;27.25;15.15;;;;;;;4.15;100.00;98110.84;5095518;28;20071;-51
2023/02/11 06:12:43;;;;;;;28.80;15.10;;;;;;;4.39;100.00;98115.94;5101885;28;20075;-52
2023/02/11 06:15:12;;;;;;;28.17;15.00;;;;;;;4.52;100.00;98123.19;5106119;27;20082;-49
2023/02/11 06:17:40;;;;;;;27.73;14.63;;;;;;;3.84;100.00;98136.50;5095388;28;20074;-50
2023/02/11 06:20:10;;;;;;;23.17;13.43;;;;;;;3.61;100.00;98129.56;5098540;27;20432;-52
2023/02/11 06:22:38;;;;;;;25.80;13.05;;;;;;;3.89;100.00;98111.94;5105176;27;20102;-47
2023/02/11 06:25:09;;;;;;;26.45;13.30;;;;;;;3.50;100.00;98123.03;5100487;27;20083;-47
2023/02/11 06:27:38;;;;;;;26.98;13.15;;;;;;;4.09;100.00;98118.91;5093819;28;20505;-51
2023/02/11 06:30:08;;;;;;;20.20;11.95;;;;;;;3.91;100.00;98110.09;5100065;28;20075;-49
2023/02/11 06:32:37;;;;;;;24.30;12.77;;;;;;;4.00;100.00;98094.06;5094840;28;20466;-49
2023/02/11 06:35:14;;;;;;;21.67;12.15;;;;;;;4.04;100.00;98089.56;5093624;28;20082;-49
2023/02/11 06:37:42;;;;;;;25.55;12.82;;;;;;;4.11;100.00;98101.44;5095539;27;20076;-46
2023/02/11 06:40:12;;;;;;;23.05;12.00;;;;;;;3.65;100.00;98107.66;5101844;28;20083;-46
2023/02/11 06:42:41;;;;;;;24.52;13.02;;;;;;;4.18;100.00;98121.16;5097888;28;20075;-49
2023/02/11 06:45:11;;;;;;;26.02;12.05;;;;;;;4.67;100.00;98119.03;5096832;28;20094;-48
2023/02/11 06:47:40;;;;;;;23.92;13.00;;;;;;;4.95;100.00;98117.81;5099347;28;20448;-50
2023/02/11 06:50:12;;;;;;;23.60;13.18;;;;;;;4.55;100.00;98119.59;5091655;28;20535;-48
2023/02/11 06:52:40;;;;;;;22.50;12.35;;;;;;;4.88;100.00;98112.00;5100901;28;20064;-49
2023/02/11 06:55:09;;;;;;;26.63;13.02;;;;;;;4.88;100.00;98114.63;5100168;28;20083;-47
2023/02/11 06:57:39;;;;;;;22.27;12.38;;;;;;;4.93;100.00;98103.97;5101349;28;20059;-49
2023/02/11 07:00:09;;;;;;;21.30;12.40;;;;;;;5.06;100.00;98112.09;5106702;28;20082;-48
2023/02/11 07:02:37;;;;;;;23.40;12.13;;;;;;;4.85;100.00;98109.56;5102140;28;20109;-50
2023/02/11 07:05:06;;;;;;;21.40;11.93;;;;;;;4.62;100.00;98113.19;5092606;28;20071;-50
2023/02/11 07:07:35;;;;;;;22.48;11.75;;;;;;;4.55;100.00;98116.13;5096316;28;20059;-47
2023/02/11 07:10:04;;;;;;;23.10;12.23;;;;;;;4.19;100.00;98117.63;5103548;27;20079;-49
2023/02/11 07:12:33;;;;;;;23.10;11.90;;;;;;;4.20;100.00;98103.66;5095329;27;20071;-49
2023/02/11 07:15:02;;;;;;;25.77;12.25;;;;;;;4.23;100.00;98100.94;5104228;27;20468;-50
2023/02/11 07:17:31;;;;;;;21.40;12.88;;;;;;;3.90;100.00;98099.72;5095986;27;20076;-48
2023/02/11 07:19:59;;;;;;;20.52;11.48;;;;;;;3.90;100.00;98103.19;5105068;27;20066;-46
2023/02/11 07:22:27;;;;;;;20.38;10.88;;;;;;;4.35;100.00;98101.31;5099869;28;20071;-47
2023/02/11 07:24:56;;;;;;;19.45;9.57;;;;;;;3.79;100.00;98121.03;5103224;27;20105;-51
2023/02/11 07:27:24;;;;;;;18.77;10.38;;;;;;;4.30;100.00;98127.59;5106083;27;20079;-51
2023/02/11 07:29:52;;;;;;;20.88;10.68;;;;;;;4.11;100.00;98130.16;5098379;27;20075;-50
2023/02/11 07:32:22;;;;;;;23.00;11.88;;;;;;;4.31;100.00;98112.81;5099089;27;20555;-51
2023/02/11 07:34:50;;;;;;;35.57;17.50;;;;;;;4.39;100.00;98102.88;5098431;27;20059;-49
2023/02/11 07:37:19;;;;;;;43.65;21.05;;;;;;;4.86;100.00;98102.56;5105157;27;20067;-51
2023/02/11 07:39:47;;;;;;;65.72;29.73;;;;;;;4.80;100.00;98093.22;5097306;28;20087;-50
2023/02/11 07:42:16;;;;;;;109.53;48.03;;;;;;;5.11;98.07;98091.84;5097384;27;20039;-48
2023/02/11 07:44:44;;;;;;;50.47;25.73;;;;;;;5.00;100.00;98098.41;5105907;27;20131;-48
2023/02/11 07:47:15;;;;;;;25.00;14.32;;;;;;;5.21;100.00;98096.56;5102803;27;20164;-47
2023/02/11 07:49:45;;;;;;;19.48;9.52;;;;;;;5.39;100.00;98100.09;5103218;27;20075;-54
2023/02/11 07:52:13;;;;;;;17.00;9.50;;;;;;;5.52;93.99;98097.75;5099536;27;20079;-51
2023/02/11 07:54:42;;;;;;;15.93;9.00;;;;;;;4.92;100.00;98097.91;5095449;27;20076;-49
2023/02/11 07:57:10;;;;;;;18.67;9.30;;;;;;;5.67;99.71;98097.00;5112603;27;20083;-49
2023/02/11 07:59:38;;;;;;;15.77;9.07;;;;;;;5.47;94.13;98100.59;5093062;27;20074;-46
2023/02/11 08:02:07;;;;;;;18.27;9.40;;;;;;;6.55;80.74;98090.91;5095009;27;20090;-49
2023/02/11 08:04:35;;;;;;;18.15;9.23;;;;;;;6.21;77.65;98089.16;5101375;27;20094;-48
2023/02/11 08:07:05;;;;;;;18.90;10.05;;;;;;;5.91;83.14;98081.88;5100415;27;20087;-49
2023/02/11 08:09:34;;;;;;;19.30;10.35;;;;;;;5.87;86.93;98080.31;5092028;28;20044;-49
2023/02/11 08:12:02;;;;;;;17.67;10.00;;;;;;;6.30;84.86;98080.84;5102859;27;20090;-51
2023/02/11 08:14:31;;;;;;;17.02;9.32;;;;;;;6.63;78.95;98088.72;5091790;28;20076;-46
2023/02/11 08:16:59;;;;;;;18.17;9.27;;;;;;;7.22;71.26;98086.47;5102148;27;20516;-50
2023/02/11 08:19:28;;;;;;;21.98;10.00;;;;;;;7.73;66.84;98092.38;5103565;27;20066;-47
2023/02/11 08:21:57;;;;;;;16.92;8.73;;;;;;;7.26;70.72;98092.38;5100445;28;20095;-45
2023/02/11 08:24:27;;;;;;;17.45;9.48;;;;;;;7.24;69.56;98087.22;5100660;27;20079;-49
2023/02/11 08:26:55;;;;;;;15.57;9.37;;;;;;;7.23;69.22;98090.78;5101420;27;20106;-49
2023/02/11 08:29:23;;;;;;;16.17;8.68;;;;;;;6.66;70.24;98096.44;5096884;27;20054;-48
2023/02/11 08:31:52;;;;;;;15.40;8.52;;;;;;;6.48;78.50;98101.78;5097420;27;20089;-46
2023/02/11 08:34:20;;;;;;;15.68;8.25;;;;;;;7.04;74.22;98097.97;5102221;27;20071;-48
2023/02/11 08:36:49;;;;;;;17.75;9.05;;;;;;;7.20;71.13;98098.84;5096939;28;20071;-49
2023/02/11 08:39:19;;;;;;;16.33;8.68;;;;;;;6.90;75.78;98090.81;5097232;27;20444;-49
2023/02/11 08:41:51;;;;;;;16.02;8.45;;;;;;;6.92;73.61;98088.09;5097451;27;20066;-51
2023/02/11 08:44:20;;;;;;;15.95;8.70;;;;;;;7.71;68.28;98089.00;5102928;27;20068;-51
2023/02/11 08:46:49;;;;;;;14.45;9.43;;;;;;;7.32;70.80;98077.16;5104989;27;20076;-51
2023/02/11 08:49:17;;;;;;;13.85;8.93;;;;;;;7.04;72.27;98087.47;5098928;27;20070;-48
2023/02/11 08:51:46;;;;;;;19.55;10.57;;;;;;;7.29;71.32;98084.34;5095267;28;20498;-50
2023/02/11 08:54:15;;;;;;;15.98;9.60;;;;;;;7.22;72.83;98078.59;5097495;27;20110;-48
2023/02/11 08:56:43;;;;;;;16.00;9.25;;;;;;;7.06;70.31;98072.50;5108921;27;20077;-48
2023/02/11 08:59:16;;;;;;;18.40;9.50;;;;;;;7.17;68.22;98070.13;5105887;27;20062;-48
2023/02/11 09:01:45;;;;;;;18.33;10.05;;;;;;;7.10;66.70;98074.88;5102269;27;20091;-48
2023/02/11 09:04:14;;;;;;;18.48;10.05;;;;;;;7.45;65.11;98077.31;5109278;27;20176;-49
2023/02/11 09:06:43;;;;;;;14.63;8.88;;;;;;;7.35;66.53;98065.66;5107509;27;20059;-46
2023/02/11 09:09:13;;;;;;;16.15;9.30;;;;;;;7.21;63.35;98049.81;5102358;27;20165;-50
2023/02/11 09:11:42;;;;;;;19.45;10.60;;;;;;;7.27;61.95;98052.97;5113076;27;20071;-52
2023/02/11 09:14:17;;;;;;;19.85;9.73;;;;;;;7.43;63.83;98062.59;5102278;27;20078;-50
2023/02/11 09:16:45;;;;;;;20.23;10.52;;;;;;;7.52;62.56;98056.84;5099151;27;20510;-44
2023/02/11 09:19:14;;;;;;;22.05;10.18;;;;;;;7.88;61.40;98053.03;5101955;27;20078;-47
2023/02/11 09:21:42;;;;;;;22.15;10.63;;;;;;;8.03;61.31;98047.75;5098252;28;20082;-49
2023/02/11 09:24:11;;;;;;;18.75;10.07;;;;;;;7.54;59.78;98065.47;5103570;27;20075;-48
2023/02/11 09:26:42;;;;;;;17.20;9.95;;;;;;;7.91;60.01;98074.72;5099454;27;20098;-48
2023/02/11 09:29:14;;;;;;;17.08;9.73;;;;;;;8.04;59.59;98075.69;5096678;27;20064;-50
2023/02/11 09:31:42;;;;;;;18.38;9.35;;;;;;;8.23;59.31;98059.72;5100609;27;20105;-53
2023/02/11 09:34:11;;;;;;;16.80;9.70;;;;;;;8.53;58.23;98057.09;5100681;27;20120;-49
2023/02/11 09:36:40;;;;;;;18.70;10.70;;;;;;;8.05;57.22;98066.03;5092457;27;20064;-49
2023/02/11 09:39:13;;;;;;;17.17;9.45;;;;;;;7.72;58.73;98066.22;5100764;27;20536;-50
2023/02/11 09:42:16;;;;;;;16.80;9.27;;;;;;;8.05;60.24;98066.91;5095170;28;20084;-50
2023/02/11 09:44:46;;;;;;;17.33;9.90;;;;;;;7.94;60.86;98065.81;5098632;27;20338;-50
2023/02/11 09:47:22;;;;;;;;;;;;;;;7.91;61.54;98058.13;5098991;27;20175;-53
2023/02/11 09:49:53;;;;;;;18.88;9.50;;;;;;;7.82;61.59;98060.34;5102762;27;19951;-49
2023/02/11 09:52:26;;;;;;;18.50;10.82;;;;;;;7.83;61.70;98059.41;5103251;27;20067;-50
2023/02/11 09:54:56;;;;;;;20.35;10.85;;;;;;;7.80;61.00;98064.00;5106161;27;20526;-45
2023/02/11 09:57:27;;;;;;;20.55;11.07;;;;;;;7.75;62.89;98069.50;5101230;27;20060;-50
2023/02/11 09:59:58;;;;;;;20.33;10.20;;;;;;;8.21;64.23;98061.59;5097065;28;20062;-52
2023/02/11 10:02:30;;;;;;;19.33;12.00;;;;;;;8.18;60.41;98058.28;5106756;27;20769;-45
2023/02/11 10:05:22;;;;;;;23.05;10.70;;;;;;;8.23;58.83;98051.84;5095014;28;20067;-49
2023/02/11 10:07:57;;;;;;;21.10;11.18;;;;;;;8.58;57.53;98058.59;5098093;28;20320;-45
2023/02/11 10:10:38;;;;;;;20.25;10.98;;;;;;;8.53;57.15;98050.94;5111879;27;20073;-49
2023/02/11 10:13:38;;;;;;;20.48;11.25;;;;;;;8.67;57.60;98068.53;5094866;27;20074;-49
2023/02/11 10:16:25;;;;;;;19.10;10.88;;;;;;;8.36;59.38;98065.06;5094759;28;20555;-50
2023/02/11 10:19:12;;;;;;;21.35;10.73;;;;;;;7.99;61.19;98075.13;5109077;27;20106;-48
2023/02/11 10:21:51;;;;;;;18.10;11.05;;;;;;;8.00;61.50;98071.56;5093905;28;20079;-49
2023/02/11 10:24:20;;;;;;;22.25;11.20;;;;;;;8.07;63.32;98075.53;5105424;28;20067;-52
2023/02/11 10:26:49;;;;;;;23.02;11.77;;;;;;;8.44;62.91;98070.78;5102466;27;20071;-48
2023/02/11 10:29:34;;;;;;;21.05;11.50;;;;;;;8.26;63.42;98070.06;5097140;28;20113;-47
2023/02/11 10:32:10;;;;;;;20.48;10.35;;;;;;;8.09;60.37;98068.41;5096237;28;20063;-52
2023/02/11 10:34:41;;;;;;;23.15;11.65;;;;;;;8.72;59.82;98058.59;5101433;28;20085;-49
2023/02/11 10:37:11;;;;;;;22.58;11.63;;;;;;;9.17;59.22;98038.25;5101112;28;20471;-48
2023/02/11 10:39:40;;;;;;;23.92;13.13;;;;;;;9.07;55.19;98039.78;5096083;28;20082;-50
2023/02/11 10:42:11;;;;;;;19.40;11.82;;;;;;;8.55;54.97;98033.31;5100100;28;20102;-48
2023/02/11 10:44:40;;;;;;;;;;;;;;;8.84;55.87;98038.56;5095663;27;20090;-52
2023/02/11 10:47:14;;;;;;;17.38;9.43;;;;;;;9.30;58.51;98025.16;5100990;27;20372;-49
2023/02/11 10:49:43;;;;;;;20.73;10.90;;;;;;;9.17;58.69;98023.28;5103393;27;20804;-51
2023/02/11 10:52:19;;;;;;;24.93;12.93;;;;;;;8.88;58.78;98029.53;5106416;27;20090;-53
2023/02/11 10:54:59;;;;;;;22.90;12.10;;;;;;;9.47;61.09;98025.75;5105739;27;20546;-50
2023/02/11 10:57:30;;;;;;;19.73;10.95;;;;;;;9.40;57.50;98021.84;5100877;27;20075;-49
2023/02/11 11:00:00;;;;;;;22.00;12.35;;;;;;;9.13;58.17;98018.34;5100748;27;20101;-52
2023/02/11 11:02:33;;;;;;;24.15;13.77;;;;;;;9.20;57.73;98009.09;5095087;27;20079;-49
2023/02/11 11:05:04;;;;;;;16.55;9.45;;;;;;;9.12;57.59;98003.47;5108343;27;20539;-51
2023/02/11 11:07:33;;;;;;;26.13;13.48;;;;;;;9.66;58.39;97999.06;5098897;27;20142;-49
2023/02/11 11:10:03;;;;;;;23.85;14.43;;;;;;;9.75;56.83;97992.34;5099276;27;20083;-52
2023/02/11 11:12:35;;;;;;;22.63;12.50;;;;;;;9.87;59.38;97995.94;5102787;27;20094;-49
2023/02/11 11:15:17;;;;;;;22.52;13.23;;;;;;;9.86;58.54;97999.53;5097082;28;20082;-51
2023/02/11 11:17:47;;;;;;;22.52;12.50;;;;;;;9.81;56.93;98010.41;5100510;27;20043;-47
2023/02/11 11:20:21;;;;;;;20.13;12.07;;;;;;;10.13;54.34;97999.47;5106268;27;20079;-48
2023/02/11 11:22:51;;;;;;;23.17;12.40;;;;;;;10.40;52.76;97991.50;5104344;27;20507;-52
2023/02/11 11:25:24;;;;;;;24.00;12.73;;;;;;;10.44;52.02;97995.63;5105268;27;20113;-49
2023/02/11 11:27:55;;;;;;;19.08;10.40;;;;;;;10.07;53.99;97998.09;5098325;28;20079;-50
2023/02/11 11:30:26;;;;;;;22.73;12.98;;;;;;;9.96;56.76;97993.53;5104099;27;20071;-49
2023/02/11 11:32:56;;;;;;;23.45;12.13;;;;;;;10.80;52.98;97986.06;5101103;27;20079;-52
2023/02/11 11:35:26;;;;;;;23.23;12.15;;;;;;;10.36;52.52;97990.03;5110104;27;20494;-51
2023/02/11 11:37:57;;;;;;;24.73;13.07;;;;;;;10.18;54.13;97994.72;5112002;27;20072;-46
2023/02/11 11:40:30;;;;;;;20.95;10.35;;;;;;;9.69;53.90;98012.03;5105268;27;20094;-45